Aérodrome :
LOGIN :

S'inscrire | Disclaimer

   EN    FR    IT 

 










Légende :    VFR   VFR Marginal   IFR   IFR Intensif   IFR Très Intensif
Visi : 
Plafond : 
>= 8 km
>= 3000ft
5 à 8 km
1000 à 3000 ft
1500m à 5 km
500 à 1000 ft
800 à 1500m
200 à 500 ft
< 800m
< 200 ft
Symboles :   Orages  Brouillard  Fortes neiges  Fortes précipitations  Vent > 20 kt
SIGMETs :   Divers  Orages  Givrage  Turbulence  Onde Orograph.  Cendres Volcan.







- Altitude de l'aérodrome : 194 ft
- Code IATA : IEG


EPZG - Zielona Gora Babimost

DERNIER METAR :
  • 151200Z 10004KT 070V130 1800 BR OVC002 06/06 Q1032

METARs EXPIRÉS :
  • 151130Z 09004KT 050V120 1100 R24/1100 BCFG BR OVC002 06/06 Q1032
  • 151100Z 11003KT 060V150 1000 R24/1200D BCFG BR OVC002 06/06 Q1032
  • 151030Z 11004KT 080V160 0400 R24/0650 FG OVC001 06/06 Q1032
  • 151000Z VRB02KT 0100 R24/0200N FG OVC001 05/05 Q1033
  • 150930Z 09003KT 060V130 0050 R24/0100N FG OVC001 05/05 Q1032

TAF TAF EPZG
Valide du 15 à 12h jusqu'au 15 à 21h UTC


151130Z 1512/1521 08006KT 1400 BR BKN002
BECMG 1512/1515 5000 BR SCT009
BECMG 1515/1518 2500 BR
Pas de NOTAMs connus pour ce terrain.



MET'MAP, la Météo Aéronautique d'un coup d'oeil ! - Copyright ORBIFLY Décembre 2007 - Disclaimer

ORBIFLY MET'MAP TEAM :

Programmation & Développement : Alexandra Zaïnal
Conception & Développement : Baudouin d'Aumeries
Co-Programmation & Développement : Marc-Olivier Méhu
Soutien technique & logistique : Manuel Goepfert

Contact : metmap@orbifly.com




SOURCES & CREDITS :

   NOAA